sensor_id;sensor_type;location;lat;lon;timestamp;temperature;humidity
6956;DHT22;50345;51.136;16.886;2023-02-28T00:00:44;1.40;99.90
6956;DHT22;50345;51.136;16.886;2023-02-28T00:03:10;1.40;99.90
6956;DHT22;50345;51.136;16.886;2023-02-28T00:05:35;1.40;99.90
6956;DHT22;50345;51.136;16.886;2023-02-28T00:08:01;1.40;99.90
6956;DHT22;50345;51.136;16.886;2023-02-28T00:10:29;1.40;99.90
6956;DHT22;50345;51.136;16.886;2023-02-28T00:13:03;1.40;99.90
6956;DHT22;50345;51.136;16.886;2023-02-28T00:15:29;1.40;99.90
6956;DHT22;50345;51.136;16.886;2023-02-28T00:17:55;1.40;99.90
6956;DHT22;50345;51.136;16.886;2023-02-28T00:20:20;1.40;99.90
6956;DHT22;50345;51.136;16.886;2023-02-28T00:22:49;1.50;99.90
6956;DHT22;50345;51.136;16.886;2023-02-28T00:25:20;1.50;99.90
6956;DHT22;50345;51.136;16.886;2023-02-28T00:27:46;1.50;99.90
6956;DHT22;50345;51.136;16.886;2023-02-28T00:30:14;1.50;99.90
6956;DHT22;50345;51.136;16.886;2023-02-28T00:32:41;1.50;99.90
6956;DHT22;50345;51.136;16.886;2023-02-28T00:35:07;1.50;99.90
6956;DHT22;50345;51.136;16.886;2023-02-28T00:37:33;1.50;99.90
6956;DHT22;50345;51.136;16.886;2023-02-28T00:39:58;1.50;99.90
6956;DHT22;50345;51.136;16.886;2023-02-28T00:42:25;1.50;99.90
6956;DHT22;50345;51.136;16.886;2023-02-28T00:44:50;1.40;99.90
6956;DHT22;50345;51.136;16.886;2023-02-28T00:47:16;1.40;99.90
6956;DHT22;50345;51.136;16.886;2023-02-28T00:49:42;1.40;99.90
6956;DHT22;50345;51.136;16.886;2023-02-28T00:52:07;1.50;99.90
6956;DHT22;50345;51.136;16.886;2023-02-28T00:54:33;1.50;99.90
6956;DHT22;50345;51.136;16.886;2023-02-28T00:56:59;1.50;99.90
6956;DHT22;50345;51.136;16.886;2023-02-28T00:59:24;1.50;99.90
6956;DHT22;50345;51.136;16.886;2023-02-28T01:01:50;1.50;99.90
6956;DHT22;50345;51.136;16.886;2023-02-28T01:04:16;1.50;99.90
6956;DHT22;50345;51.136;16.886;2023-02-28T01:06:42;1.50;99.90
6956;DHT22;50345;51.136;16.886;2023-02-28T01:09:08;1.50;99.90
6956;DHT22;50345;51.136;16.886;2023-02-28T01:11:34;1.50;99.90
6956;DHT22;50345;51.136;16.886;2023-02-28T01:14:00;1.50;99.90
6956;DHT22;50345;51.136;16.886;2023-02-28T01:16:26;1.50;99.90
6956;DHT22;50345;51.136;16.886;2023-02-28T01:18:52;1.50;99.90
6956;DHT22;50345;51.136;16.886;2023-02-28T01:21:19;1.50;99.90
6956;DHT22;50345;51.136;16.886;2023-02-28T01:23:44;1.50;99.90
6956;DHT22;50345;51.136;16.886;2023-02-28T01:26:21;1.50;99.90
6956;DHT22;50345;51.136;16.886;2023-02-28T01:28:48;1.40;99.90
6956;DHT22;50345;51.136;16.886;2023-02-28T01:31:14;1.50;99.90
6956;DHT22;50345;51.136;16.886;2023-02-28T01:33:40;1.40;99.90
6956;DHT22;50345;51.136;16.886;2023-02-28T01:36:09;1.40;99.90
6956;DHT22;50345;51.136;16.886;2023-02-28T01:38:36;1.40;99.90
6956;DHT22;50345;51.136;16.886;2023-02-28T01:41:02;1.50;99.90
6956;DHT22;50345;51.136;16.886;2023-02-28T01:43:30;1.40;99.90
6956;DHT22;50345;51.136;16.886;2023-02-28T01:45:58;1.50;99.90
6956;DHT22;50345;51.136;16.886;2023-02-28T01:48:30;1.50;99.90
6956;DHT22;50345;51.136;16.886;2023-02-28T01:51:00;1.50;99.90
6956;DHT22;50345;51.136;16.886;2023-02-28T01:53:33;1.50;99.90
6956;DHT22;50345;51.136;16.886;2023-02-28T01:56:00;1.50;99.90
6956;DHT22;50345;51.136;16.886;2023-02-28T01:58:29;1.50;99.90
6956;DHT22;50345;51.136;16.886;2023-02-28T02:00:54;1.50;99.90
6956;DHT22;50345;51.136;16.886;2023-02-28T02:03:20;1.50;99.90
6956;DHT22;50345;51.136;16.886;2023-02-28T02:05:47;1.50;99.90
6956;DHT22;50345;51.136;16.886;2023-02-28T02:08:19;1.50;99.90
6956;DHT22;50345;51.136;16.886;2023-02-28T02:10:55;1.50;99.90
6956;DHT22;50345;51.136;16.886;2023-02-28T02:16:36;1.60;99.90
6956;DHT22;50345;51.136;16.886;2023-02-28T02:22:52;1.60;99.90
6956;DHT22;50345;51.136;16.886;2023-02-28T02:39:54;1.60;99.90
6956;DHT22;50345;51.136;16.886;2023-02-28T02:42:44;1.60;99.90
6956;DHT22;50345;51.136;16.886;2023-02-28T02:45:23;1.60;99.90
6956;DHT22;50345;51.136;16.886;2023-02-28T02:47:51;1.60;99.90
6956;DHT22;50345;51.136;16.886;2023-02-28T02:50:24;1.60;99.90
6956;DHT22;50345;51.136;16.886;2023-02-28T02:52:55;1.60;99.90
6956;DHT22;50345;51.136;16.886;2023-02-28T02:55:22;1.60;99.90
6956;DHT22;50345;51.136;16.886;2023-02-28T02:57:54;1.60;99.90
6956;DHT22;50345;51.136;16.886;2023-02-28T03:00:27;1.60;99.90
6956;DHT22;50345;51.136;16.886;2023-02-28T03:02:54;1.60;99.90
6956;DHT22;50345;51.136;16.886;2023-02-28T03:05:27;1.60;99.90
6956;DHT22;50345;51.136;16.886;2023-02-28T03:07:55;1.60;99.90
6956;DHT22;50345;51.136;16.886;2023-02-28T03:10:31;1.60;99.90
6956;DHT22;50345;51.136;16.886;2023-02-28T03:18:32;1.50;99.90
6956;DHT22;50345;51.136;16.886;2023-02-28T03:24:32;1.50;99.90
6956;DHT22;50345;51.136;16.886;2023-02-28T03:27:07;1.50;99.90
6956;DHT22;50345;51.136;16.886;2023-02-28T03:29:40;1.50;99.90
6956;DHT22;50345;51.136;16.886;2023-02-28T03:34:50;1.50;99.90
6956;DHT22;50345;51.136;16.886;2023-02-28T03:37:21;1.40;99.90
6956;DHT22;50345;51.136;16.886;2023-02-28T03:39:51;1.40;99.90
6956;DHT22;50345;51.136;16.886;2023-02-28T03:42:22;1.40;99.90
6956;DHT22;50345;51.136;16.886;2023-02-28T03:44:57;1.40;99.90
6956;DHT22;50345;51.136;16.886;2023-02-28T03:47:27;1.40;99.90
6956;DHT22;50345;51.136;16.886;2023-02-28T03:50:01;1.40;99.90
6956;DHT22;50345;51.136;16.886;2023-02-28T03:52:31;1.40;99.90
6956;DHT22;50345;51.136;16.886;2023-02-28T03:55:02;1.40;99.90
6956;DHT22;50345;51.136;16.886;2023-02-28T03:57:50;1.40;99.90
6956;DHT22;50345;51.136;16.886;2023-02-28T04:00:21;1.40;99.90
6956;DHT22;50345;51.136;16.886;2023-02-28T04:02:50;1.40;99.90
6956;DHT22;50345;51.136;16.886;2023-02-28T04:05:19;1.40;99.90
6956;DHT22;50345;51.136;16.886;2023-02-28T04:07:44;1.40;99.90
6956;DHT22;50345;51.136;16.886;2023-02-28T04:10:11;1.40;99.90
6956;DHT22;50345;51.136;16.886;2023-02-28T04:12:37;1.40;99.90
6956;DHT22;50345;51.136;16.886;2023-02-28T04:15:03;1.40;99.90
6956;DHT22;50345;51.136;16.886;2023-02-28T04:17:28;1.40;99.90
6956;DHT22;50345;51.136;16.886;2023-02-28T04:19:54;1.40;99.90
6956;DHT22;50345;51.136;16.886;2023-02-28T04:22:21;1.40;99.90
6956;DHT22;50345;51.136;16.886;2023-02-28T04:24:47;1.50;99.90
6956;DHT22;50345;51.136;16.886;2023-02-28T04:27:12;1.50;99.90
6956;DHT22;50345;51.136;16.886;2023-02-28T04:29:40;1.50;99.90
6956;DHT22;50345;51.136;16.886;2023-02-28T04:32:10;1.50;99.90
6956;DHT22;50345;51.136;16.886;2023-02-28T04:34:35;1.50;99.90
6956;DHT22;50345;51.136;16.886;2023-02-28T04:37:02;1.50;99.90
6956;DHT22;50345;51.136;16.886;2023-02-28T04:39:28;1.50;99.90
6956;DHT22;50345;51.136;16.886;2023-02-28T04:41:55;1.50;99.90
6956;DHT22;50345;51.136;16.886;2023-02-28T04:44:21;1.50;99.90
6956;DHT22;50345;51.136;16.886;2023-02-28T04:46:48;1.50;99.90
6956;DHT22;50345;51.136;16.886;2023-02-28T04:49:13;1.50;99.90
6956;DHT22;50345;51.136;16.886;2023-02-28T04:51:39;1.50;99.90
6956;DHT22;50345;51.136;16.886;2023-02-28T04:54:05;1.50;99.90
6956;DHT22;50345;51.136;16.886;2023-02-28T04:56:30;1.50;99.90
6956;DHT22;50345;51.136;16.886;2023-02-28T04:58:56;1.50;99.90
6956;DHT22;50345;51.136;16.886;2023-02-28T05:01:31;1.50;99.90
6956;DHT22;50345;51.136;16.886;2023-02-28T05:03:59;1.50;99.90
6956;DHT22;50345;51.136;16.886;2023-02-28T05:06:28;1.50;99.90
6956;DHT22;50345;51.136;16.886;2023-02-28T05:08:55;1.50;99.90
6956;DHT22;50345;51.136;16.886;2023-02-28T05:11:27;1.50;99.90
6956;DHT22;50345;51.136;16.886;2023-02-28T05:13:55;1.50;99.90
6956;DHT22;50345;51.136;16.886;2023-02-28T05:16:20;1.50;99.90
6956;DHT22;50345;51.136;16.886;2023-02-28T05:18:47;1.50;99.90
6956;DHT22;50345;51.136;16.886;2023-02-28T05:21:33;1.50;99.90
6956;DHT22;50345;51.136;16.886;2023-02-28T05:24:04;1.50;99.90
6956;DHT22;50345;51.136;16.886;2023-02-28T05:26:31;1.50;99.90
6956;DHT22;50345;51.136;16.886;2023-02-28T05:28:57;1.50;99.90
6956;DHT22;50345;51.136;16.886;2023-02-28T05:31:23;1.50;99.90
6956;DHT22;50345;51.136;16.886;2023-02-28T05:33:48;1.50;99.90
6956;DHT22;50345;51.136;16.886;2023-02-28T05:36:14;1.50;99.90
6956;DHT22;50345;51.136;16.886;2023-02-28T05:38:39;1.50;99.90
6956;DHT22;50345;51.136;16.886;2023-02-28T05:41:07;1.50;99.90
6956;DHT22;50345;51.136;16.886;2023-02-28T05:43:33;1.50;99.90
6956;DHT22;50345;51.136;16.886;2023-02-28T05:45:58;1.50;99.90
6956;DHT22;50345;51.136;16.886;2023-02-28T05:48:24;1.50;99.90
6956;DHT22;50345;51.136;16.886;2023-02-28T05:50:51;1.40;99.90
6956;DHT22;50345;51.136;16.886;2023-02-28T05:53:16;1.40;99.90
6956;DHT22;50345;51.136;16.886;2023-02-28T05:55:42;1.40;99.90
6956;DHT22;50345;51.136;16.886;2023-02-28T05:58:07;1.40;99.90
6956;DHT22;50345;51.136;16.886;2023-02-28T06:00:33;1.40;99.90
6956;DHT22;50345;51.136;16.886;2023-02-28T06:02:59;1.50;99.90
6956;DHT22;50345;51.136;16.886;2023-02-28T06:05:27;1.50;99.90
6956;DHT22;50345;51.136;16.886;2023-02-28T06:07:53;1.50;99.90
6956;DHT22;50345;51.136;16.886;2023-02-28T06:10:18;1.50;99.90
6956;DHT22;50345;51.136;16.886;2023-02-28T06:12:45;1.60;99.90
6956;DHT22;50345;51.136;16.886;2023-02-28T06:15:13;1.60;99.90
6956;DHT22;50345;51.136;16.886;2023-02-28T06:17:43;1.60;99.90
6956;DHT22;50345;51.136;16.886;2023-02-28T06:20:10;1.70;99.90
6956;DHT22;50345;51.136;16.886;2023-02-28T06:22:38;1.70;99.90
6956;DHT22;50345;51.136;16.886;2023-02-28T06:25:05;1.80;99.90
6956;DHT22;50345;51.136;16.886;2023-02-28T06:27:32;1.80;99.90
6956;DHT22;50345;51.136;16.886;2023-02-28T06:29:58;1.80;99.90
6956;DHT22;50345;51.136;16.886;2023-02-28T06:32:24;1.80;99.90
6956;DHT22;50345;51.136;16.886;2023-02-28T06:34:49;1.80;99.90
6956;DHT22;50345;51.136;16.886;2023-02-28T06:37:16;1.90;99.90
6956;DHT22;50345;51.136;16.886;2023-02-28T06:39:42;1.90;99.90
6956;DHT22;50345;51.136;16.886;2023-02-28T06:42:07;2.00;99.90
6956;DHT22;50345;51.136;16.886;2023-02-28T06:44:33;2.00;99.90
6956;DHT22;50345;51.136;16.886;2023-02-28T06:47:04;2.10;99.90
6956;DHT22;50345;51.136;16.886;2023-02-28T06:49:31;2.10;99.90
6956;DHT22;50345;51.136;16.886;2023-02-28T06:51:56;2.10;99.90
6956;DHT22;50345;51.136;16.886;2023-02-28T06:54:22;2.10;99.90
6956;DHT22;50345;51.136;16.886;2023-02-28T06:56:48;2.10;99.90
6956;DHT22;50345;51.136;16.886;2023-02-28T06:59:14;2.10;99.90
6956;DHT22;50345;51.136;16.886;2023-02-28T07:01:40;2.10;99.90
6956;DHT22;50345;51.136;16.886;2023-02-28T07:04:06;2.10;99.90
6956;DHT22;50345;51.136;16.886;2023-02-28T07:06:32;2.10;99.90
6956;DHT22;50345;51.136;16.886;2023-02-28T07:08:58;2.30;99.90
6956;DHT22;50345;51.136;16.886;2023-02-28T07:11:27;2.40;99.90
6956;DHT22;50345;51.136;16.886;2023-02-28T07:13:54;2.50;99.90
6956;DHT22;50345;51.136;16.886;2023-02-28T07:18:47;2.60;99.90
6956;DHT22;50345;51.136;16.886;2023-02-28T07:21:13;2.70;99.90
6956;DHT22;50345;51.136;16.886;2023-02-28T07:23:39;2.70;99.90
6956;DHT22;50345;51.136;16.886;2023-02-28T07:26:05;2.70;99.90
6956;DHT22;50345;51.136;16.886;2023-02-28T07:28:32;2.80;99.90
6956;DHT22;50345;51.136;16.886;2023-02-28T07:31:03;2.80;99.90
6956;DHT22;50345;51.136;16.886;2023-02-28T07:33:29;2.90;99.90
6956;DHT22;50345;51.136;16.886;2023-02-28T07:36:03;2.90;99.90
6956;DHT22;50345;51.136;16.886;2023-02-28T07:38:29;3.00;99.90
6956;DHT22;50345;51.136;16.886;2023-02-28T07:40:55;3.00;99.90
6956;DHT22;50345;51.136;16.886;2023-02-28T07:43:21;3.10;99.90
6956;DHT22;50345;51.136;16.886;2023-02-28T07:45:46;3.10;99.90
6956;DHT22;50345;51.136;16.886;2023-02-28T07:48:12;3.10;99.60
6956;DHT22;50345;51.136;16.886;2023-02-28T07:50:37;3.20;97.20
6956;DHT22;50345;51.136;16.886;2023-02-28T07:53:03;3.20;94.50
6956;DHT22;50345;51.136;16.886;2023-02-28T07:55:29;3.30;91.50
6956;DHT22;50345;51.136;16.886;2023-02-28T07:57:57;3.30;90.70
6956;DHT22;50345;51.136;16.886;2023-02-28T08:00:23;3.30;88.50
6956;DHT22;50345;51.136;16.886;2023-02-28T08:02:49;3.30;87.10
6956;DHT22;50345;51.136;16.886;2023-02-28T08:05:14;3.40;85.80
6956;DHT22;50345;51.136;16.886;2023-02-28T08:07:40;3.40;87.20
6956;DHT22;50345;51.136;16.886;2023-02-28T08:10:06;3.50;83.10
6956;DHT22;50345;51.136;16.886;2023-02-28T08:12:32;3.50;79.80
6956;DHT22;50345;51.136;16.886;2023-02-28T08:14:58;3.60;77.80
6956;DHT22;50345;51.136;16.886;2023-02-28T08:17:23;3.60;76.80
6956;DHT22;50345;51.136;16.886;2023-02-28T08:19:49;3.60;75.30
6956;DHT22;50345;51.136;16.886;2023-02-28T08:22:15;3.80;74.60
6956;DHT22;50345;51.136;16.886;2023-02-28T08:24:42;3.80;75.60
6956;DHT22;50345;51.136;16.886;2023-02-28T08:27:08;3.90;74.60
6956;DHT22;50345;51.136;16.886;2023-02-28T08:29:34;4.00;75.20
6956;DHT22;50345;51.136;16.886;2023-02-28T08:32:01;4.10;75.10
6956;DHT22;50345;51.136;16.886;2023-02-28T08:34:27;4.20;73.00
6956;DHT22;50345;51.136;16.886;2023-02-28T08:36:52;4.30;70.90
6956;DHT22;50345;51.136;16.886;2023-02-28T08:39:18;4.40;71.20
6956;DHT22;50345;51.136;16.886;2023-02-28T08:41:45;4.50;70.50
6956;DHT22;50345;51.136;16.886;2023-02-28T08:44:10;4.60;71.60
6956;DHT22;50345;51.136;16.886;2023-02-28T08:46:36;4.90;67.10
6956;DHT22;50345;51.136;16.886;2023-02-28T08:49:02;4.90;68.30
6956;DHT22;50345;51.136;16.886;2023-02-28T08:51:28;5.10;64.00
6956;DHT22;50345;51.136;16.886;2023-02-28T08:53:55;5.20;65.00
6956;DHT22;50345;51.136;16.886;2023-02-28T08:56:21;5.50;63.10
6956;DHT22;50345;51.136;16.886;2023-02-28T08:58:48;5.50;64.00
6956;DHT22;50345;51.136;16.886;2023-02-28T09:01:19;5.70;62.50
6956;DHT22;50345;51.136;16.886;2023-02-28T09:03:46;6.00;58.50
6956;DHT22;50345;51.136;16.886;2023-02-28T09:06:12;6.00;59.10
6956;DHT22;50345;51.136;16.886;2023-02-28T09:08:40;6.20;58.00
6956;DHT22;50345;51.136;16.886;2023-02-28T09:11:06;6.70;57.20
6956;DHT22;50345;51.136;16.886;2023-02-28T09:13:32;7.40;56.40
6956;DHT22;50345;51.136;16.886;2023-02-28T09:15:59;7.70;55.50
6956;DHT22;50345;51.136;16.886;2023-02-28T09:18:25;8.00;53.40
6956;DHT22;50345;51.136;16.886;2023-02-28T09:20:51;8.10;52.30
6956;DHT22;50345;51.136;16.886;2023-02-28T09:23:17;8.10;53.20
6956;DHT22;50345;51.136;16.886;2023-02-28T09:28:12;10.40;49.20
6956;DHT22;50345;51.136;16.886;2023-02-28T09:30:39;13.60;42.50
6956;DHT22;50345;51.136;16.886;2023-02-28T09:33:05;15.20;38.80
6956;DHT22;50345;51.136;16.886;2023-02-28T09:37:56;16.80;36.60
6956;DHT22;50345;51.136;16.886;2023-02-28T09:40:25;17.70;34.80
6956;DHT22;50345;51.136;16.886;2023-02-28T09:42:53;18.40;31.70
6956;DHT22;50345;51.136;16.886;2023-02-28T09:45:37;19.20;30.90
6956;DHT22;50345;51.136;16.886;2023-02-28T09:48:12;19.80;29.40
6956;DHT22;50345;51.136;16.886;2023-02-28T09:50:48;19.90;30.10
6956;DHT22;50345;51.136;16.886;2023-02-28T09:53:21;20.20;29.30
6956;DHT22;50345;51.136;16.886;2023-02-28T09:56:36;20.60;28.60
6956;DHT22;50345;51.136;16.886;2023-02-28T09:59:06;20.90;28.60
6956;DHT22;50345;51.136;16.886;2023-02-28T10:04:45;21.20;28.30
6956;DHT22;50345;51.136;16.886;2023-02-28T10:09:48;21.20;28.80
6956;DHT22;50345;51.136;16.886;2023-02-28T10:12:16;21.90;27.30
6956;DHT22;50345;51.136;16.886;2023-02-28T10:14:45;22.00;27.10
6956;DHT22;50345;51.136;16.886;2023-02-28T10:17:41;22.10;27.10
6956;DHT22;50345;51.136;16.886;2023-02-28T10:20:12;20.70;27.40
6956;DHT22;50345;51.136;16.886;2023-02-28T10:25:35;20.70;27.90
6956;DHT22;50345;51.136;16.886;2023-02-28T10:28:12;20.90;26.90
6956;DHT22;50345;51.136;16.886;2023-02-28T10:30:44;21.70;26.80
6956;DHT22;50345;51.136;16.886;2023-02-28T10:33:23;22.00;26.50
6956;DHT22;50345;51.136;16.886;2023-02-28T10:35:49;22.40;26.70
6956;DHT22;50345;51.136;16.886;2023-02-28T10:38:22;22.60;27.30
6956;DHT22;50345;51.136;16.886;2023-02-28T10:40:48;22.60;27.30
6956;DHT22;50345;51.136;16.886;2023-02-28T10:45:40;22.50;27.10
6956;DHT22;50345;51.136;16.886;2023-02-28T10:56:03;23.50;25.30
6956;DHT22;50345;51.136;16.886;2023-02-28T10:58:33;24.20;24.90
6956;DHT22;50345;51.136;16.886;2023-02-28T11:01:23;24.20;25.30
6956;DHT22;50345;51.136;16.886;2023-02-28T11:03:50;24.40;25.20
6956;DHT22;50345;51.136;16.886;2023-02-28T11:06:25;24.40;25.40
6956;DHT22;50345;51.136;16.886;2023-02-28T11:09:33;23.90;25.60
6956;DHT22;50345;51.136;16.886;2023-02-28T11:12:04;23.60;25.80
6956;DHT22;50345;51.136;16.886;2023-02-28T11:14:35;23.30;26.10
6956;DHT22;50345;51.136;16.886;2023-02-28T11:17:19;22.50;25.70
6956;DHT22;50345;51.136;16.886;2023-02-28T11:19:48;21.40;26.10
6956;DHT22;50345;51.136;16.886;2023-02-28T11:22:20;21.00;26.80
6956;DHT22;50345;51.136;16.886;2023-02-28T11:24:52;20.60;26.50
6956;DHT22;50345;51.136;16.886;2023-02-28T11:29:58;20.30;27.50
6956;DHT22;50345;51.136;16.886;2023-02-28T11:32:28;20.30;27.60
6956;DHT22;50345;51.136;16.886;2023-02-28T11:37:37;21.80;25.80
6956;DHT22;50345;51.136;16.886;2023-02-28T11:40:12;22.30;26.50
6956;DHT22;50345;51.136;16.886;2023-02-28T11:43:06;22.50;25.90
6956;DHT22;50345;51.136;16.886;2023-02-28T11:45:45;22.50;25.70
6956;DHT22;50345;51.136;16.886;2023-02-28T11:48:43;22.70;25.70
6956;DHT22;50345;51.136;16.886;2023-02-28T11:51:47;22.80;25.90
6956;DHT22;50345;51.136;16.886;2023-02-28T11:54:32;22.40;25.70
6956;DHT22;50345;51.136;16.886;2023-02-28T12:03:29;22.70;25.80
6956;DHT22;50345;51.136;16.886;2023-02-28T12:14:25;22.50;26.40
6956;DHT22;50345;51.136;16.886;2023-02-28T12:20:16;22.30;25.90
6956;DHT22;50345;51.136;16.886;2023-02-28T12:25:33;22.10;26.10
6956;DHT22;50345;51.136;16.886;2023-02-28T12:28:02;22.00;26.00
6956;DHT22;50345;51.136;16.886;2023-02-28T12:30:34;21.80;26.30
6956;DHT22;50345;51.136;16.886;2023-02-28T12:33:07;21.50;26.20
6956;DHT22;50345;51.136;16.886;2023-02-28T12:38:21;20.40;26.30
6956;DHT22;50345;51.136;16.886;2023-02-28T12:40:52;20.30;26.80
6956;DHT22;50345;51.136;16.886;2023-02-28T12:43:19;20.20;27.30
6956;DHT22;50345;51.136;16.886;2023-02-28T12:51:47;20.80;28.30
6956;DHT22;50345;51.136;16.886;2023-02-28T13:10:48;20.00;28.00
6956;DHT22;50345;51.136;16.886;2023-02-28T13:13:24;20.40;28.00
6956;DHT22;50345;51.136;16.886;2023-02-28T13:16:17;20.50;27.90
6956;DHT22;50345;51.136;16.886;2023-02-28T13:18:45;20.10;28.30
6956;DHT22;50345;51.136;16.886;2023-02-28T13:21:26;20.00;27.50
6956;DHT22;50345;51.136;16.886;2023-02-28T13:26:22;19.40;28.80
6956;DHT22;50345;51.136;16.886;2023-02-28T13:31:14;18.90;29.40
6956;DHT22;50345;51.136;16.886;2023-02-28T13:38:40;19.20;29.10
6956;DHT22;50345;51.136;16.886;2023-02-28T13:44:09;19.80;28.30
6956;DHT22;50345;51.136;16.886;2023-02-28T13:54:53;20.10;28.00
6956;DHT22;50345;51.136;16.886;2023-02-28T14:02:37;20.70;27.60
6956;DHT22;50345;51.136;16.886;2023-02-28T14:05:13;20.70;27.20
6956;DHT22;50345;51.136;16.886;2023-02-28T14:07:52;20.50;27.30
6956;DHT22;50345;51.136;16.886;2023-02-28T14:10:31;20.30;27.60
6956;DHT22;50345;51.136;16.886;2023-02-28T14:13:03;20.20;27.50
6956;DHT22;50345;51.136;16.886;2023-02-28T14:15:40;20.10;27.70
6956;DHT22;50345;51.136;16.886;2023-02-28T14:20:48;19.80;27.40
6956;DHT22;50345;51.136;16.886;2023-02-28T14:23:24;19.70;27.50
6956;DHT22;50345;51.136;16.886;2023-02-28T14:28:55;19.60;28.00
6956;DHT22;50345;51.136;16.886;2023-02-28T14:31:52;20.00;27.90
6956;DHT22;50345;51.136;16.886;2023-02-28T14:34:50;20.20;27.20
6956;DHT22;50345;51.136;16.886;2023-02-28T14:37:27;20.50;27.00
6956;DHT22;50345;51.136;16.886;2023-02-28T14:39:53;20.10;27.00
6956;DHT22;50345;51.136;16.886;2023-02-28T14:42:39;20.20;27.20
6956;DHT22;50345;51.136;16.886;2023-02-28T14:45:30;20.60;27.20
6956;DHT22;50345;51.136;16.886;2023-02-28T14:47:57;20.90;27.20
6956;DHT22;50345;51.136;16.886;2023-02-28T14:50:35;20.80;27.10
6956;DHT22;50345;51.136;16.886;2023-02-28T14:53:02;20.90;27.60
6956;DHT22;50345;51.136;16.886;2023-02-28T14:55:33;20.50;27.10
6956;DHT22;50345;51.136;16.886;2023-02-28T14:58:04;20.50;27.30
6956;DHT22;50345;51.136;16.886;2023-02-28T15:00:36;20.70;27.40
6956;DHT22;50345;51.136;16.886;2023-02-28T15:03:24;20.90;27.10
6956;DHT22;50345;51.136;16.886;2023-02-28T15:05:59;21.00;27.10
6956;DHT22;50345;51.136;16.886;2023-02-28T15:08:26;20.90;27.00
6956;DHT22;50345;51.136;16.886;2023-02-28T15:11:08;20.90;27.00
6956;DHT22;50345;51.136;16.886;2023-02-28T15:13:40;20.70;26.90
6956;DHT22;50345;51.136;16.886;2023-02-28T15:16:32;20.50;26.80
6956;DHT22;50345;51.136;16.886;2023-02-28T15:19:00;20.30;27.20
6956;DHT22;50345;51.136;16.886;2023-02-28T15:21:27;20.10;27.20
6956;DHT22;50345;51.136;16.886;2023-02-28T15:23:57;19.50;27.40
6956;DHT22;50345;51.136;16.886;2023-02-28T15:26:27;18.90;28.00
6956;DHT22;50345;51.136;16.886;2023-02-28T15:29:00;18.30;27.70
6956;DHT22;50345;51.136;16.886;2023-02-28T15:31:29;17.30;28.00
6956;DHT22;50345;51.136;16.886;2023-02-28T15:34:02;16.90;28.20
6956;DHT22;50345;51.136;16.886;2023-02-28T15:36:33;15.90;29.50
6956;DHT22;50345;51.136;16.886;2023-02-28T15:39:16;14.80;30.60
6956;DHT22;50345;51.136;16.886;2023-02-28T15:41:44;14.10;32.00
6956;DHT22;50345;51.136;16.886;2023-02-28T15:44:28;13.70;32.60
6956;DHT22;50345;51.136;16.886;2023-02-28T15:47:00;13.10;33.60
6956;DHT22;50345;51.136;16.886;2023-02-28T15:49:28;12.50;34.10
6956;DHT22;50345;51.136;16.886;2023-02-28T15:51:56;12.00;35.30
6956;DHT22;50345;51.136;16.886;2023-02-28T15:54:34;11.00;35.90
6956;DHT22;50345;51.136;16.886;2023-02-28T15:57:07;10.90;36.30
6956;DHT22;50345;51.136;16.886;2023-02-28T15:59:38;10.50;37.30
6956;DHT22;50345;51.136;16.886;2023-02-28T16:04:36;9.80;39.40
6956;DHT22;50345;51.136;16.886;2023-02-28T16:07:05;9.50;39.90
6956;DHT22;50345;51.136;16.886;2023-02-28T16:09:31;9.30;41.00
6956;DHT22;50345;51.136;16.886;2023-02-28T16:12:00;9.10;41.50
6956;DHT22;50345;51.136;16.886;2023-02-28T16:14:28;8.80;42.60
6956;DHT22;50345;51.136;16.886;2023-02-28T16:17:02;8.40;42.10
6956;DHT22;50345;51.136;16.886;2023-02-28T16:19:29;8.20;42.90
6956;DHT22;50345;51.136;16.886;2023-02-28T16:21:54;8.00;43.30
6956;DHT22;50345;51.136;16.886;2023-02-28T16:24:20;7.80;43.70
6956;DHT22;50345;51.136;16.886;2023-02-28T16:26:47;7.60;43.90
6956;DHT22;50345;51.136;16.886;2023-02-28T16:29:18;7.40;44.30
6956;DHT22;50345;51.136;16.886;2023-02-28T16:31:44;7.30;44.80
6956;DHT22;50345;51.136;16.886;2023-02-28T16:34:10;7.00;45.30
6956;DHT22;50345;51.136;16.886;2023-02-28T16:36:35;7.00;45.70
6956;DHT22;50345;51.136;16.886;2023-02-28T16:39:01;6.70;45.40
6956;DHT22;50345;51.136;16.886;2023-02-28T16:41:28;6.70;45.60
6956;DHT22;50345;51.136;16.886;2023-02-28T16:43:56;6.50;46.20
6956;DHT22;50345;51.136;16.886;2023-02-28T16:46:30;6.40;46.80
6956;DHT22;50345;51.136;16.886;2023-02-28T16:48:56;6.30;47.00
6956;DHT22;50345;51.136;16.886;2023-02-28T16:51:22;6.10;47.10
6956;DHT22;50345;51.136;16.886;2023-02-28T16:53:47;6.10;47.60
6956;DHT22;50345;51.136;16.886;2023-02-28T16:56:19;6.00;47.90
6956;DHT22;50345;51.136;16.886;2023-02-28T16:58:45;5.90;48.20
6956;DHT22;50345;51.136;16.886;2023-02-28T17:01:11;5.80;48.50
6956;DHT22;50345;51.136;16.886;2023-02-28T17:03:37;5.70;48.90
6956;DHT22;50345;51.136;16.886;2023-02-28T17:06:03;5.60;49.10
6956;DHT22;50345;51.136;16.886;2023-02-28T17:08:30;5.50;49.40
6956;DHT22;50345;51.136;16.886;2023-02-28T17:10:57;5.40;49.20
6956;DHT22;50345;51.136;16.886;2023-02-28T17:13:23;5.40;50.00
6956;DHT22;50345;51.136;16.886;2023-02-28T17:15:48;5.30;50.00
6956;DHT22;50345;51.136;16.886;2023-02-28T17:18:16;5.20;50.20
6956;DHT22;50345;51.136;16.886;2023-02-28T17:20:44;5.10;50.50
6956;DHT22;50345;51.136;16.886;2023-02-28T17:23:10;5.10;50.70
6956;DHT22;50345;51.136;16.886;2023-02-28T17:25:36;5.00;51.00
6956;DHT22;50345;51.136;16.886;2023-02-28T17:28:01;4.90;51.60
6956;DHT22;50345;51.136;16.886;2023-02-28T17:30:27;4.80;51.50
6956;DHT22;50345;51.136;16.886;2023-02-28T17:32:54;4.70;51.70
6956;DHT22;50345;51.136;16.886;2023-02-28T17:35:20;4.60;51.90
6956;DHT22;50345;51.136;16.886;2023-02-28T17:37:45;4.50;52.20
6956;DHT22;50345;51.136;16.886;2023-02-28T17:40:19;4.50;52.40
6956;DHT22;50345;51.136;16.886;2023-02-28T17:42:46;4.40;52.50
6956;DHT22;50345;51.136;16.886;2023-02-28T17:45:13;4.30;52.90
6956;DHT22;50345;51.136;16.886;2023-02-28T17:47:39;4.30;53.20
6956;DHT22;50345;51.136;16.886;2023-02-28T17:50:06;4.20;53.40
6956;DHT22;50345;51.136;16.886;2023-02-28T17:52:31;4.20;53.60
6956;DHT22;50345;51.136;16.886;2023-02-28T17:55:03;4.10;53.80
6956;DHT22;50345;51.136;16.886;2023-02-28T17:57:29;4.00;54.20
6956;DHT22;50345;51.136;16.886;2023-02-28T17:59:54;4.00;54.60
6956;DHT22;50345;51.136;16.886;2023-02-28T18:02:20;3.90;54.90
6956;DHT22;50345;51.136;16.886;2023-02-28T18:04:46;3.90;55.20
6956;DHT22;50345;51.136;16.886;2023-02-28T18:07:11;3.80;55.40
6956;DHT22;50345;51.136;16.886;2023-02-28T18:09:37;3.80;55.70
6956;DHT22;50345;51.136;16.886;2023-02-28T18:12:03;3.70;55.90
6956;DHT22;50345;51.136;16.886;2023-02-28T18:14:28;3.60;56.30
6956;DHT22;50345;51.136;16.886;2023-02-28T18:16:55;3.60;56.80
6956;DHT22;50345;51.136;16.886;2023-02-28T18:19:20;3.50;57.10
6956;DHT22;50345;51.136;16.886;2023-02-28T18:21:48;3.40;57.60